sensor_id;sensor_type;location;lat;lon;timestamp;pressure;altitude;pressure_sealevel;temperature;humidity
39449;BME280;25151;45.566;9.382;2023-05-14T00:01:32;99732.47;;;21.63;62.38
39449;BME280;25151;45.566;9.382;2023-05-14T00:04:33;99732.47;;;21.63;62.68
39449;BME280;25151;45.566;9.382;2023-05-14T00:07:33;99723.25;;;21.62;62.41
39449;BME280;25151;45.566;9.382;2023-05-14T00:10:35;99722.44;;;21.61;62.56
39449;BME280;25151;45.566;9.382;2023-05-14T00:13:36;99722.44;;;21.61;62.57
39449;BME280;25151;45.566;9.382;2023-05-14T00:16:36;99708.44;;;21.61;62.37
39449;BME280;25151;45.566;9.382;2023-05-14T00:19:37;99709.69;;;21.60;62.44
39449;BME280;25151;45.566;9.382;2023-05-14T00:22:42;99708.91;;;21.60;62.50
39449;BME280;25151;45.566;9.382;2023-05-14T00:25:42;99708.13;;;21.59;62.62
39449;BME280;25151;45.566;9.382;2023-05-14T00:28:43;99702.50;;;21.59;62.59
39449;BME280;25151;45.566;9.382;2023-05-14T00:31:44;99702.50;;;21.59;62.39
39449;BME280;25151;45.566;9.382;2023-05-14T00:34:44;99701.72;;;21.59;62.48
39449;BME280;25151;45.566;9.382;2023-05-14T00:37:45;99700.16;;;21.58;62.49
39449;BME280;25151;45.566;9.382;2023-05-14T00:40:46;99707.34;;;21.59;62.36
39449;BME280;25151;45.566;9.382;2023-05-14T00:43:51;99693.75;;;21.57;62.14
39449;BME280;25151;45.566;9.382;2023-05-14T00:46:53;99695.78;;;21.57;62.15
39449;BME280;25151;45.566;9.382;2023-05-14T00:49:53;99700.94;;;21.58;62.41
39449;BME280;25151;45.566;9.382;2023-05-14T00:52:54;99692.97;;;21.57;62.29
39449;BME280;25151;45.566;9.382;2023-05-14T00:55:56;99691.41;;;21.56;62.05
39449;BME280;25151;45.566;9.382;2023-05-14T00:58:56;99690.63;;;21.55;62.57
39449;BME280;25151;45.566;9.382;2023-05-14T01:01:57;99685.03;;;21.55;62.27
39449;BME280;25151;45.566;9.382;2023-05-14T01:04:58;99687.84;;;21.55;62.21
39449;BME280;25151;45.566;9.382;2023-05-14T01:08:29;99675.34;;;21.56;62.38
39449;BME280;25151;45.566;9.382;2023-05-14T01:17:58;99669.44;;;21.54;62.10
39449;BME280;25151;45.566;9.382;2023-05-14T01:20:58;99675.50;;;21.53;62.32
39449;BME280;25151;45.566;9.382;2023-05-14T01:23:59;99672.25;;;21.54;62.32
39449;BME280;25151;45.566;9.382;2023-05-14T01:33:34;99670.66;;;21.53;62.56
39449;BME280;25151;45.566;9.382;2023-05-14T01:36:35;99652.28;;;21.52;62.38
39449;BME280;25151;45.566;9.382;2023-05-14T01:39:36;99657.09;;;21.52;62.24
39449;BME280;25151;45.566;9.382;2023-05-14T01:42:38;99656.78;;;21.50;62.27
39449;BME280;25151;45.566;9.382;2023-05-14T01:45:38;99659.13;;;21.51;62.50
39449;BME280;25151;45.566;9.382;2023-05-14T01:48:39;99657.88;;;21.52;62.54
39449;BME280;25151;45.566;9.382;2023-05-14T01:51:40;99661.94;;;21.51;62.15
39449;BME280;25151;45.566;9.382;2023-05-14T01:54:41;99659.56;;;21.50;62.40
39449;BME280;25151;45.566;9.382;2023-05-14T01:57:42;99653.19;;;21.49;62.32
39449;BME280;25151;45.566;9.382;2023-05-14T02:00:43;99648.81;;;21.48;62.42
39449;BME280;25151;45.566;9.382;2023-05-14T02:03:44;99649.16;;;21.50;62.36
39449;BME280;25151;45.566;9.382;2023-05-14T02:06:45;99647.56;;;21.49;62.57
39449;BME280;25151;45.566;9.382;2023-05-14T02:09:46;99643.56;;;21.50;62.43
39449;BME280;25151;45.566;9.382;2023-05-14T02:12:47;99639.16;;;21.49;62.51
39449;BME280;25151;45.566;9.382;2023-05-14T02:15:49;99637.13;;;21.50;62.39
39449;BME280;25151;45.566;9.382;2023-05-14T02:18:50;99629.97;;;21.49;62.28
39449;BME280;25151;45.566;9.382;2023-05-14T02:21:51;99615.63;;;21.47;62.12
39449;BME280;25151;45.566;9.382;2023-05-14T02:24:51;99620.00;;;21.48;62.55
39449;BME280;25151;45.566;9.382;2023-05-14T02:27:52;99615.63;;;21.47;62.25
39449;BME280;25151;45.566;9.382;2023-05-14T02:30:58;99617.19;;;21.48;62.10
39449;BME280;25151;45.566;9.382;2023-05-14T02:34:02;99615.63;;;21.47;62.09
39449;BME280;25151;45.566;9.382;2023-05-14T02:37:03;99616.41;;;21.47;62.41
39449;BME280;25151;45.566;9.382;2023-05-14T02:40:04;99609.25;;;21.46;62.29
39449;BME280;25151;45.566;9.382;2023-05-14T02:43:05;99613.28;;;21.45;62.11
39449;BME280;25151;45.566;9.382;2023-05-14T02:46:06;99607.22;;;21.47;62.39
39449;BME280;25151;45.566;9.382;2023-05-14T02:49:07;99602.03;;;21.45;62.42
39449;BME280;25151;45.566;9.382;2023-05-14T02:52:08;99602.03;;;21.45;62.25
39449;BME280;25151;45.566;9.382;2023-05-14T02:55:09;99594.41;;;21.46;62.39
39449;BME280;25151;45.566;9.382;2023-05-14T02:58:11;99590.81;;;21.45;62.42
39449;BME280;25151;45.566;9.382;2023-05-14T03:01:12;99590.81;;;21.45;62.13
39449;BME280;25151;45.566;9.382;2023-05-14T03:04:14;99590.81;;;21.45;62.36
39449;BME280;25151;45.566;9.382;2023-05-14T03:07:16;99583.66;;;21.44;62.31
39449;BME280;25151;45.566;9.382;2023-05-14T03:10:16;99578.84;;;21.45;62.14
39449;BME280;25151;45.566;9.382;2023-05-14T03:13:17;99582.88;;;21.44;62.16
39449;BME280;25151;45.566;9.382;2023-05-14T03:16:19;99579.31;;;21.43;62.57
39449;BME280;25151;45.566;9.382;2023-05-14T03:19:20;99583.66;;;21.44;62.32
39449;BME280;25151;45.566;9.382;2023-05-14T03:22:21;99580.84;;;21.44;62.03
39449;BME280;25151;45.566;9.382;2023-05-14T03:25:23;99573.69;;;21.43;62.18
39449;BME280;25151;45.566;9.382;2023-05-14T03:28:24;99568.84;;;21.44;62.35
39449;BME280;25151;45.566;9.382;2023-05-14T03:31:28;99576.50;;;21.43;62.24
39449;BME280;25151;45.566;9.382;2023-05-14T03:34:29;99569.34;;;21.42;62.37
39449;BME280;25151;45.566;9.382;2023-05-14T03:37:30;99571.31;;;21.42;62.26
39449;BME280;25151;45.566;9.382;2023-05-14T03:40:30;99570.88;;;21.43;62.39
39449;BME280;25151;45.566;9.382;2023-05-14T03:43:31;99573.34;;;21.41;62.13
39449;BME280;25151;45.566;9.382;2023-05-14T03:46:32;99574.94;;;21.42;62.38
39449;BME280;25151;45.566;9.382;2023-05-14T03:49:33;99573.34;;;21.41;61.98
39449;BME280;25151;45.566;9.382;2023-05-14T03:52:34;99566.97;;;21.41;62.02
39449;BME280;25151;45.566;9.382;2023-05-14T03:55:36;99561.34;;;21.41;62.28
39449;BME280;25151;45.566;9.382;2023-05-14T03:58:38;99566.53;;;21.42;62.07
39449;BME280;25151;45.566;9.382;2023-05-14T04:01:40;99560.59;;;21.40;62.32
39449;BME280;25151;45.566;9.382;2023-05-14T04:04:40;99557.78;;;21.40;62.10
39449;BME280;25151;45.566;9.382;2023-05-14T04:07:41;99553.72;;;21.41;62.06
39449;BME280;25151;45.566;9.382;2023-05-14T04:10:42;99551.69;;;21.42;61.99
39449;BME280;25151;45.566;9.382;2023-05-14T04:13:43;99549.38;;;21.40;62.34
39449;BME280;25151;45.566;9.382;2023-05-14T04:16:44;99545.78;;;21.40;62.13
39449;BME280;25151;45.566;9.382;2023-05-14T04:19:45;99536.59;;;21.39;62.47
39449;BME280;25151;45.566;9.382;2023-05-14T04:22:45;99536.59;;;21.39;62.07
39449;BME280;25151;45.566;9.382;2023-05-14T04:25:47;99535.81;;;21.39;62.38
39449;BME280;25151;45.566;9.382;2023-05-14T04:28:48;99536.59;;;21.39;62.21
39449;BME280;25151;45.566;9.382;2023-05-14T04:31:49;99535.00;;;21.38;62.35
39449;BME280;25151;45.566;9.382;2023-05-14T04:34:50;99539.41;;;21.39;62.13
39449;BME280;25151;45.566;9.382;2023-05-14T04:37:50;99537.81;;;21.38;62.44
39449;BME280;25151;45.566;9.382;2023-05-14T04:40:52;99543.41;;;21.38;62.07
39449;BME280;25151;45.566;9.382;2023-05-14T04:43:55;99539.06;;;21.37;62.32
39449;BME280;25151;45.566;9.382;2023-05-14T04:46:56;99544.22;;;21.39;62.08
39449;BME280;25151;45.566;9.382;2023-05-14T04:49:57;99540.31;;;21.36;62.37
39449;BME280;25151;45.566;9.382;2023-05-14T04:52:58;99533.16;;;21.35;62.34
39449;BME280;25151;45.566;9.382;2023-05-14T04:55:59;99544.66;;;21.37;61.97
39449;BME280;25151;45.566;9.382;2023-05-14T04:58:59;99547.47;;;21.37;62.39
39449;BME280;25151;45.566;9.382;2023-05-14T05:02:00;99537.03;;;21.38;61.99
39449;BME280;25151;45.566;9.382;2023-05-14T05:05:02;99534.69;;;21.36;62.12
39449;BME280;25151;45.566;9.382;2023-05-14T05:08:05;99539.06;;;21.37;62.42
39449;BME280;25151;45.566;9.382;2023-05-14T05:11:06;99543.13;;;21.36;62.40
39449;BME280;25151;45.566;9.382;2023-05-14T05:14:06;99542.34;;;21.35;62.07
39449;BME280;25151;45.566;9.382;2023-05-14T05:17:07;99535.94;;;21.35;62.01
39449;BME280;25151;45.566;9.382;2023-05-14T05:20:09;99535.16;;;21.34;62.07
39449;BME280;25151;45.566;9.382;2023-05-14T05:23:10;99538.75;;;21.35;62.22
39449;BME280;25151;45.566;9.382;2023-05-14T05:26:11;99531.91;;;21.36;61.99
39449;BME280;25151;45.566;9.382;2023-05-14T05:29:11;99537.50;;;21.36;62.06
39449;BME280;25151;45.566;9.382;2023-05-14T05:32:12;99525.19;;;21.33;62.42
39449;BME280;25151;45.566;9.382;2023-05-14T05:35:13;99525.50;;;21.35;62.18
39449;BME280;25151;45.566;9.382;2023-05-14T05:38:13;99523.97;;;21.34;62.42
39449;BME280;25151;45.566;9.382;2023-05-14T05:41:16;99525.38;;;21.39;62.29
39449;BME280;25151;45.566;9.382;2023-05-14T05:44:17;99533.00;;;21.39;62.19
39449;BME280;25151;45.566;9.382;2023-05-14T05:47:18;99518.19;;;21.38;62.26
39449;BME280;25151;45.566;9.382;2023-05-14T05:50:18;99518.97;;;21.39;61.91
39449;BME280;25151;45.566;9.382;2023-05-14T05:53:20;99523.78;;;21.38;62.33
39449;BME280;25151;45.566;9.382;2023-05-14T05:56:20;99520.97;;;21.38;61.96
39449;BME280;25151;45.566;9.382;2023-05-14T05:59:21;99513.03;;;21.36;62.00
39449;BME280;25151;45.566;9.382;2023-05-14T06:02:22;99519.75;;;21.39;62.29
39449;BME280;25151;45.566;9.382;2023-05-14T06:05:24;99522.22;;;21.37;62.22
39449;BME280;25151;45.566;9.382;2023-05-14T06:08:25;99514.16;;;21.39;62.26
39449;BME280;25151;45.566;9.382;2023-05-14T06:11:26;99516.63;;;21.37;62.37
39449;BME280;25151;45.566;9.382;2023-05-14T06:14:26;99523.78;;;21.38;62.09
39449;BME280;25151;45.566;9.382;2023-05-14T06:17:29;99525.69;;;21.41;62.13
39449;BME280;25151;45.566;9.382;2023-05-14T06:20:29;99525.69;;;21.41;62.27
39449;BME280;25151;45.566;9.382;2023-05-14T06:23:32;99528.81;;;21.43;62.15
39449;BME280;25151;45.566;9.382;2023-05-14T06:26:32;99526.78;;;21.44;62.36
39449;BME280;25151;45.566;9.382;2023-05-14T06:29:33;99516.34;;;21.44;62.45
39449;BME280;25151;45.566;9.382;2023-05-14T06:32:34;99519.16;;;21.44;62.54
39449;BME280;25151;45.566;9.382;2023-05-14T06:35:34;99517.91;;;21.45;62.60
39449;BME280;25151;45.566;9.382;2023-05-14T06:38:36;99511.50;;;21.45;62.47
39449;BME280;25151;45.566;9.382;2023-05-14T06:41:37;99516.34;;;21.44;63.04
39449;BME280;25151;45.566;9.382;2023-05-14T06:44:37;99513.06;;;21.46;62.79
39449;BME280;25151;45.566;9.382;2023-05-14T06:47:38;99503.09;;;21.45;63.21
39449;BME280;25151;45.566;9.382;2023-05-14T06:50:39;99501.06;;;21.45;63.26
39449;BME280;25151;45.566;9.382;2023-05-14T06:53:40;99501.06;;;21.45;63.38
39449;BME280;25151;45.566;9.382;2023-05-14T06:56:41;99495.44;;;21.45;63.15
39449;BME280;25151;45.566;9.382;2023-05-14T06:59:41;99508.25;;;21.46;63.19
39449;BME280;25151;45.566;9.382;2023-05-14T07:02:42;99489.06;;;21.45;63.22
39449;BME280;25151;45.566;9.382;2023-05-14T07:05:43;99497.03;;;21.46;63.63
39449;BME280;25151;45.566;9.382;2023-05-14T07:08:45;99504.19;;;21.47;63.51
39449;BME280;25151;45.566;9.382;2023-05-14T07:11:46;99498.13;;;21.49;63.34
39449;BME280;25151;45.566;9.382;2023-05-14T07:14:47;99501.69;;;21.49;63.44
39449;BME280;25151;45.566;9.382;2023-05-14T07:17:48;99496.88;;;21.50;63.38
39449;BME280;25151;45.566;9.382;2023-05-14T07:20:48;99500.00;;;21.52;63.36
39449;BME280;25151;45.566;9.382;2023-05-14T07:23:49;99489.25;;;21.50;63.52
39449;BME280;25151;45.566;9.382;2023-05-14T07:26:50;99492.38;;;21.52;63.36
39449;BME280;25151;45.566;9.382;2023-05-14T07:29:51;99495.16;;;21.52;63.72
39449;BME280;25151;45.566;9.382;2023-05-14T07:32:52;99493.13;;;21.53;63.45
39449;BME280;25151;45.566;9.382;2023-05-14T07:35:52;99491.44;;;21.55;63.84
39449;BME280;25151;45.566;9.382;2023-05-14T07:38:53;99485.50;;;21.53;63.91
39449;BME280;25151;45.566;9.382;2023-05-14T07:41:56;99481.47;;;21.54;63.87
39449;BME280;25151;45.566;9.382;2023-05-14T07:45:00;99483.81;;;21.56;63.81
39449;BME280;25151;45.566;9.382;2023-05-14T07:48:02;99489.41;;;21.56;63.72
39449;BME280;25151;45.566;9.382;2023-05-14T07:51:03;99486.13;;;21.57;63.70
39449;BME280;25151;45.566;9.382;2023-05-14T07:54:05;99482.09;;;21.58;63.86
39449;BME280;25151;45.566;9.382;2023-05-14T07:57:05;99478.03;;;21.59;63.99
39449;BME280;25151;45.566;9.382;2023-05-14T08:00:07;99470.88;;;21.58;63.81
39449;BME280;25151;45.566;9.382;2023-05-14T08:03:08;99470.88;;;21.58;64.06
39449;BME280;25151;45.566;9.382;2023-05-14T08:06:09;99479.59;;;21.60;63.85
39449;BME280;25151;45.566;9.382;2023-05-14T08:09:10;99465.56;;;21.60;63.94
39449;BME280;25151;45.566;9.382;2023-05-14T08:12:11;99470.72;;;21.62;63.91
39449;BME280;25151;45.566;9.382;2023-05-14T08:15:14;99465.13;;;21.62;64.14
39449;BME280;25151;45.566;9.382;2023-05-14T08:18:15;99464.31;;;21.61;63.75
39449;BME280;25151;45.566;9.382;2023-05-14T08:21:16;99458.72;;;21.61;63.90
39449;BME280;25151;45.566;9.382;2023-05-14T08:24:18;99468.38;;;21.60;63.69
39449;BME280;25151;45.566;9.382;2023-05-14T08:27:18;99459.50;;;21.62;64.01
39449;BME280;25151;45.566;9.382;2023-05-14T08:30:19;99456.72;;;21.62;63.74
39449;BME280;25151;45.566;9.382;2023-05-14T08:33:21;99457.16;;;21.60;63.81
39449;BME280;25151;45.566;9.382;2023-05-14T08:36:22;99453.09;;;21.61;63.79
39449;BME280;25151;45.566;9.382;2023-05-14T08:39:23;99451.88;;;21.63;63.64
39449;BME280;25151;45.566;9.382;2023-05-14T08:42:29;99453.09;;;21.61;64.04
39449;BME280;25151;45.566;9.382;2023-05-14T08:45:40;99451.88;;;21.63;63.76
39449;BME280;25151;45.566;9.382;2023-05-14T08:48:41;99452.16;;;21.65;63.45
39449;BME280;25151;45.566;9.382;2023-05-14T08:51:43;99441.72;;;21.65;63.83
39449;BME280;25151;45.566;9.382;2023-05-14T08:54:49;99432.53;;;21.65;63.78
39449;BME280;25151;45.566;9.382;2023-05-14T08:57:50;99432.53;;;21.65;63.60
39449;BME280;25151;45.566;9.382;2023-05-14T09:00:52;99427.25;;;21.67;63.59
39449;BME280;25151;45.566;9.382;2023-05-14T09:03:53;99429.72;;;21.65;63.63
39449;BME280;25151;45.566;9.382;2023-05-14T09:06:54;99435.34;;;21.65;63.15
39449;BME280;25151;45.566;9.382;2023-05-14T09:10:00;99436.88;;;21.66;63.31
39449;BME280;25151;45.566;9.382;2023-05-14T09:13:01;99434.09;;;21.66;63.50
39449;BME280;25151;45.566;9.382;2023-05-14T09:16:03;99425.66;;;21.66;63.06
39449;BME280;25151;45.566;9.382;2023-05-14T09:19:05;99420.06;;;21.66;63.07
39449;BME280;25151;45.566;9.382;2023-05-14T09:22:14;99417.25;;;21.66;62.79
39449;BME280;25151;45.566;9.382;2023-05-14T09:25:17;99414.44;;;21.66;62.87
39449;BME280;25151;45.566;9.382;2023-05-14T09:28:17;99426.47;;;21.66;62.90
39449;BME280;25151;45.566;9.382;2023-05-14T09:31:21;99406.03;;;21.66;63.05
39449;BME280;25151;45.566;9.382;2023-05-14T09:34:26;99418.81;;;21.67;62.52
39449;BME280;25151;45.566;9.382;2023-05-14T09:37:27;99412.75;;;21.68;62.82
39449;BME280;25151;45.566;9.382;2023-05-14T09:40:28;99407.59;;;21.67;62.70
39449;BME280;25151;45.566;9.382;2023-05-14T09:43:32;99396.38;;;21.67;62.27
39449;BME280;25151;45.566;9.382;2023-05-14T09:46:33;99396.69;;;21.69;62.43
39449;BME280;25151;45.566;9.382;2023-05-14T09:49:34;99397.94;;;21.68;61.92
39449;BME280;25151;45.566;9.382;2023-05-14T09:52:35;99390.78;;;21.67;62.15
39449;BME280;25151;45.566;9.382;2023-05-14T09:55:37;99379.84;;;21.69;62.11
39449;BME280;25151;45.566;9.382;2023-05-14T09:58:38;99383.91;;;21.68;62.00
39449;BME280;25151;45.566;9.382;2023-05-14T10:01:41;99384.19;;;21.70;61.76
39449;BME280;25151;45.566;9.382;2023-05-14T10:04:43;99371.41;;;21.69;61.80
39449;BME280;25151;45.566;9.382;2023-05-14T10:07:48;99377.34;;;21.71;61.86
39449;BME280;25151;45.566;9.382;2023-05-14T10:10:53;99377.66;;;21.73;62.00
39449;BME280;25151;45.566;9.382;2023-05-14T10:14:28;99365.22;;;21.74;61.85
39449;BME280;25151;45.566;9.382;2023-05-14T10:17:21;99368.47;;;21.72;61.92
39449;BME280;25151;45.566;9.382;2023-05-14T10:20:23;99372.38;;;21.75;61.95
39449;BME280;25151;45.566;9.382;2023-05-14T10:23:26;99362.69;;;21.76;61.98
39449;BME280;25151;45.566;9.382;2023-05-14T10:26:27;99355.06;;;21.76;62.24
39449;BME280;25151;45.566;9.382;2023-05-14T10:29:35;99361.44;;;21.77;62.44
39449;BME280;25151;45.566;9.382;2023-05-14T10:32:36;99344.59;;;21.77;62.23
39449;BME280;25151;45.566;9.382;2023-05-14T10:38:56;99352.56;;;21.78;62.73
39449;BME280;25151;45.566;9.382;2023-05-14T10:41:58;99336.97;;;21.77;62.60
39449;BME280;25151;45.566;9.382;2023-05-14T10:45:01;99344.94;;;21.79;63.22
39449;BME280;25151;45.566;9.382;2023-05-14T10:48:05;99343.38;;;21.78;62.99
39449;BME280;25151;45.566;9.382;2023-05-14T10:51:07;99337.75;;;21.78;63.21
39449;BME280;25151;45.566;9.382;2023-05-14T10:54:11;99332.16;;;21.78;63.22
39449;BME280;25151;45.566;9.382;2023-05-14T10:57:12;99332.94;;;21.78;63.33
39449;BME280;25151;45.566;9.382;2023-05-14T11:00:14;99344.59;;;21.77;63.74
39449;BME280;25151;45.566;9.382;2023-05-14T11:03:15;99336.19;;;21.77;63.55
39449;BME280;25151;45.566;9.382;2023-05-14T11:06:15;99334.63;;;21.76;63.73
39449;BME280;25151;45.566;9.382;2023-05-14T11:09:16;99323.41;;;21.76;63.59
39449;BME280;25151;45.566;9.382;2023-05-14T11:12:18;99331.53;;;21.74;64.09
39449;BME280;25151;45.566;9.382;2023-05-14T11:15:23;99327.47;;;21.75;63.82
39449;BME280;25151;45.566;9.382;2023-05-14T11:18:30;99322.31;;;21.73;63.81
39449;BME280;25151;45.566;9.382;2023-05-14T11:21:30;99310.31;;;21.73;63.89
39449;BME280;25151;45.566;9.382;2023-05-14T11:24:34;99308.28;;;21.73;63.89
39449;BME280;25151;45.566;9.382;2023-05-14T11:27:37;99307.50;;;21.73;64.09
39449;BME280;25151;45.566;9.382;2023-05-14T11:30:38;99305.19;;;21.71;63.92
39449;BME280;25151;45.566;9.382;2023-05-14T11:33:39;99297.53;;;21.72;63.86
39449;BME280;25151;45.566;9.382;2023-05-14T11:36:39;99285.53;;;21.71;64.01
39449;BME280;25151;45.566;9.382;2023-05-14T11:39:49;99273.81;;;21.73;64.00
39449;BME280;25151;45.566;9.382;2023-05-14T11:42:50;99271.34;;;21.75;64.14
39449;BME280;25151;45.566;9.382;2023-05-14T11:45:53;99271.34;;;21.75;63.91
39449;BME280;25151;45.566;9.382;2023-05-14T11:48:54;99264.97;;;21.74;64.14
39449;BME280;25151;45.566;9.382;2023-05-14T11:51:58;99260.13;;;21.75;64.10
39449;BME280;25151;45.566;9.382;2023-05-14T11:54:58;99256.06;;;21.76;63.95
39449;BME280;25151;45.566;9.382;2023-05-14T11:58:02;99258.56;;;21.74;64.17
39449;BME280;25151;45.566;9.382;2023-05-14T12:01:02;99244.53;;;21.74;63.93
39449;BME280;25151;45.566;9.382;2023-05-14T12:04:03;99243.28;;;21.75;64.04
39449;BME280;25151;45.566;9.382;2023-05-14T12:07:09;99237.66;;;21.75;63.88
39449;BME280;25151;45.566;9.382;2023-05-14T12:10:11;99234.53;;;21.73;63.91
39449;BME280;25151;45.566;9.382;2023-05-14T12:13:14;99231.28;;;21.74;63.69
39449;BME280;25151;45.566;9.382;2023-05-14T12:16:15;99224.91;;;21.74;63.85
39449;BME280;25151;45.566;9.382;2023-05-14T12:19:18;99224.09;;;21.73;64.06
39449;BME280;25151;45.566;9.382;2023-05-14T12:22:21;99220.84;;;21.75;63.84
39449;BME280;25151;45.566;9.382;2023-05-14T12:25:24;99218.47;;;21.73;63.86
39449;BME280;25151;45.566;9.382;2023-05-14T12:28:24;99216.47;;;21.74;64.04
39449;BME280;25151;45.566;9.382;2023-05-14T12:31:27;99200.88;;;21.73;64.15
39449;BME280;25151;45.566;9.382;2023-05-14T12:34:28;99190.91;;;21.72;63.88
39449;BME280;25151;45.566;9.382;2023-05-14T12:37:29;99191.22;;;21.74;63.64
39449;BME280;25151;45.566;9.382;2023-05-14T12:40:30;99184.03;;;21.73;63.92
39449;BME280;25151;45.566;9.382;2023-05-14T12:43:30;99179.19;;;21.73;63.78
39449;BME280;25151;45.566;9.382;2023-05-14T12:46:32;99177.66;;;21.72;63.84
39449;BME280;25151;45.566;9.382;2023-05-14T12:49:33;99178.41;;;21.73;63.75
39449;BME280;25151;45.566;9.382;2023-05-14T12:52:34;99167.19;;;21.73;63.86
39449;BME280;25151;45.566;9.382;2023-05-14T12:55:34;99165.66;;;21.72;63.46
39449;BME280;25151;45.566;9.382;2023-05-14T12:58:35;99163.16;;;21.74;63.76
39449;BME280;25151;45.566;9.382;2023-05-14T13:01:36;99158.78;;;21.73;63.82
39449;BME280;25151;45.566;9.382;2023-05-14T13:04:38;99156.28;;;21.75;63.35
39449;BME280;25151;45.566;9.382;2023-05-14T13:07:40;99148.34;;;21.73;63.56
39449;BME280;25151;45.566;9.382;2023-05-14T13:10:42;99147.09;;;21.74;63.24
39449;BME280;25151;45.566;9.382;2023-05-14T13:13:43;99139.47;;;21.75;63.38
39449;BME280;25151;45.566;9.382;2023-05-14T13:16:44;99140.72;;;21.74;63.68
39449;BME280;25151;45.566;9.382;2023-05-14T13:19:44;99143.53;;;21.74;63.45
39449;BME280;25151;45.566;9.382;2023-05-14T13:22:46;99137.59;;;21.72;63.25
39449;BME280;25151;45.566;9.382;2023-05-14T13:25:46;99136.34;;;21.73;63.41
39449;BME280;25151;45.566;9.382;2023-05-14T13:28:47;99133.53;;;21.73;63.31
39449;BME280;25151;45.566;9.382;2023-05-14T13:31:48;99127.91;;;21.73;63.50
39449;BME280;25151;45.566;9.382;2023-05-14T13:34:50;99134.31;;;21.73;63.29
39449;BME280;25151;45.566;9.382;2023-05-14T13:37:50;99126.38;;;21.72;63.51
39449;BME280;25151;45.566;9.382;2023-05-14T13:40:51;99119.50;;;21.73;63.40
39449;BME280;25151;45.566;9.382;2023-05-14T13:43:52;99126.38;;;21.72;63.33
39449;BME280;25151;45.566;9.382;2023-05-14T13:46:52;99119.22;;;21.71;63.63
39449;BME280;25151;45.566;9.382;2023-05-14T13:49:54;99120.75;;;21.72;63.20
39449;BME280;25151;45.566;9.382;2023-05-14T13:52:57;99112.81;;;21.70;63.63
39449;BME280;25151;45.566;9.382;2023-05-14T13:55:58;99117.63;;;21.70;63.54
39449;BME280;25151;45.566;9.382;2023-05-14T13:59:00;99114.06;;;21.69;63.30
39449;BME280;25151;45.566;9.382;2023-05-14T14:02:01;99104.88;;;21.69;63.32
39449;BME280;25151;45.566;9.382;2023-05-14T14:05:02;99104.88;;;21.69;63.43
39449;BME280;25151;45.566;9.382;2023-05-14T14:08:03;99107.22;;;21.70;63.46
39449;BME280;25151;45.566;9.382;2023-05-14T14:11:04;99096.44;;;21.69;63.16
39449;BME280;25151;45.566;9.382;2023-05-14T14:14:05;99102.06;;;21.69;63.35
39449;BME280;25151;45.566;9.382;2023-05-14T14:17:05;99098.47;;;21.68;63.16
39449;BME280;25151;45.566;9.382;2023-05-14T14:20:08;99097.69;;;21.68;63.06
39449;BME280;25151;45.566;9.382;2023-05-14T14:23:09;99092.09;;;21.68;63.26
39449;BME280;25151;45.566;9.382;2023-05-14T14:26:10;99095.66;;;21.68;63.06
39449;BME280;25151;45.566;9.382;2023-05-14T14:29:11;99103.31;;;21.68;63.22
39449;BME280;25151;45.566;9.382;2023-05-14T14:32:12;99102.06;;;21.69;63.35
39449;BME280;25151;45.566;9.382;2023-05-14T14:35:14;99095.19;;;21.70;62.96
39449;BME280;25151;45.566;9.382;2023-05-14T14:38:15;99095.19;;;21.70;62.98
39449;BME280;25151;45.566;9.382;2023-05-14T14:41:15;99078.34;;;21.70;63.21
39449;BME280;25151;45.566;9.382;2023-05-14T14:44:16;99082.25;;;21.72;63.42
39449;BME280;25151;45.566;9.382;2023-05-14T14:47:17;99084.28;;;21.72;63.43
39449;BME280;25151;45.566;9.382;2023-05-14T14:50:17;99083.03;;;21.73;63.30
39449;BME280;25151;45.566;9.382;2023-05-14T14:53:19;99085.38;;;21.74;63.49
39449;BME280;25151;45.566;9.382;2023-05-14T14:56:20;99087.41;;;21.74;63.42
39449;BME280;25151;45.566;9.382;2023-05-14T14:59:21;99093.78;;;21.74;63.60
39449;BME280;25151;45.566;9.382;2023-05-14T15:02:22;99090.97;;;21.74;63.25
39449;BME280;25151;45.566;9.382;2023-05-14T15:05:22;99095.81;;;21.74;63.43
39449;BME280;25151;45.566;9.382;2023-05-14T15:08:24;99102.97;;;21.75;63.56
39449;BME280;25151;45.566;9.382;2023-05-14T15:11:28;99107.03;;;21.74;63.63
39449;BME280;25151;45.566;9.382;2023-05-14T15:14:28;99103.44;;;21.73;63.49
39449;BME280;25151;45.566;9.382;2023-05-14T15:17:29;99105.78;;;21.75;63.62
39449;BME280;25151;45.566;9.382;2023-05-14T15:20:31;99105.00;;;21.74;63.47
39449;BME280;25151;45.566;9.382;2023-05-14T15:23:32;99109.03;;;21.73;63.77
39449;BME280;25151;45.566;9.382;2023-05-14T15:26:33;99111.06;;;21.73;63.47
39449;BME280;25151;45.566;9.382;2023-05-14T15:29:33;99114.19;;;21.75;63.73
39449;BME280;25151;45.566;9.382;2023-05-14T15:32:34;99102.66;;;21.73;63.39
39449;BME280;25151;45.566;9.382;2023-05-14T15:35:35;99090.22;;;21.74;63.96
39449;BME280;25151;45.566;9.382;2023-05-14T15:38:35;99091.75;;;21.75;63.58
39449;BME280;25151;45.566;9.382;2023-05-14T15:41:36;99102.97;;;21.75;63.44
39449;BME280;25151;45.566;9.382;2023-05-14T15:44:37;99131.81;;;21.75;63.68
39449;BME280;25151;45.566;9.382;2023-05-14T15:47:38;99131.03;;;21.75;63.93
39449;BME280;25151;45.566;9.382;2023-05-14T15:50:39;99132.59;;;21.76;63.94
39449;BME280;25151;45.566;9.382;2023-05-14T15:53:41;99132.59;;;21.76;63.85
39449;BME280;25151;45.566;9.382;2023-05-14T15:56:42;99138.53;;;21.78;63.56
39449;BME280;25151;45.566;9.382;2023-05-14T15:59:43;99141.31;;;21.78;63.77
39449;BME280;25151;45.566;9.382;2023-05-14T16:02:44;99149.75;;;21.78;63.82
39449;BME280;25151;45.566;9.382;2023-05-14T16:05:45;99145.34;;;21.77;63.99
39449;BME280;25151;45.566;9.382;2023-05-14T16:08:46;99150.19;;;21.76;63.65
39449;BME280;25151;45.566;9.382;2023-05-14T16:11:46;99153.00;;;21.76;64.20
39449;BME280;25151;45.566;9.382;2023-05-14T16:14:47;99159.88;;;21.75;63.68
39449;BME280;25151;45.566;9.382;2023-05-14T16:17:49;99163.16;;;21.74;63.95